Terminal Aerodrome Forecast
Issued by NWS Tulsa, OK

Home | Current Version | Previous Version | Text Only | Print | Product List | Glossary On
Versions: 1 2 3 4 5 6 7 8 9 10 11 12
076
FTUS44 KTSA 111120
TAFFSM
TAF
KFSM 111120Z 1112/1212 13005KT P6SM OVC035 WS020/22045KT
     FM111400 12012KT P6SM OVC025 WS020/22045KT
      TEMPO 1114/1118 BKN015
     FM111800 16014KT P6SM OVC015
     FM112200 22010KT P6SM OVC025
     FM120300 30012KT P6SM OVC025=

USA.gov is the U.S. government's official web portal to all federal, state and local government web resources and services.